Time;durP1;ratioP1;P1;durP2;ratioP2;P2;SDS_P1;SDS_P2;PMS_P1;PMS_P2;Temp;Humidity;BMP_temperature;BMP_pressure;BME280_temperature;BME280_humidity;BME280_pressure;Samples;Min_cycle;Max_cycle;Signal;HPM_P1;HPM_P2
2021/01/27 00:00:49;;;;;;;9.93;7.90;;;-0.30;99.90;;;;;;5076611;28;20195;-66
2021/01/27 00:03:15;;;;;;;12.37;7.57;;;-0.30;99.90;;;;;;5080596;28;20558;-66
2021/01/27 00:05:44;;;;;;;9.77;7.47;;;-0.30;99.90;;;;;;5073111;28;20211;-67
2021/01/27 00:08:10;;;;;;;9.10;7.57;;;-0.20;99.90;;;;;;5068196;28;20188;-66
2021/01/27 00:10:36;;;;;;;17.60;7.37;;;-0.10;99.90;;;;;;5068669;28;20269;-66
2021/01/27 00:13:03;;;;;;;8.17;7.37;;;-0.10;99.90;;;;;;5078261;28;20192;-67
2021/01/27 00:15:32;;;;;;;9.33;7.30;;;-0.10;99.90;;;;;;5072649;28;20226;-67
2021/01/27 00:17:59;;;;;;;8.93;7.37;;;-0.10;99.90;;;;;;5069854;28;20268;-68
2021/01/27 00:20:26;;;;;;;9.07;7.73;;;-0.10;99.90;;;;;;5069145;28;20238;-66
2021/01/27 00:22:53;;;;;;;14.93;8.30;;;-0.10;99.90;;;;;;5073576;28;20205;-66
2021/01/27 00:25:25;;;;;;;10.40;7.00;;;-0.10;99.90;;;;;;5079352;28;20178;-68
2021/01/27 00:27:50;;;;;;;8.97;6.93;;;0.00;99.90;;;;;;5076261;28;20901;-67
2021/01/27 00:30:21;;;;;;;10.43;8.00;;;0.00;99.90;;;;;;5073236;28;20214;-66
2021/01/27 00:32:47;;;;;;;7.27;6.57;;;0.10;99.90;;;;;;5075761;28;20187;-68
2021/01/27 00:35:14;;;;;;;7.83;6.97;;;0.20;99.90;;;;;;5081023;28;20693;-68
2021/01/27 00:37:40;;;;;;;8.70;6.70;;;0.20;99.90;;;;;;5067626;28;20628;-67
2021/01/27 00:40:07;;;;;;;8.93;7.17;;;0.30;99.90;;;;;;5067218;28;20309;-67
2021/01/27 00:42:33;;;;;;;9.50;6.87;;;0.30;99.90;;;;;;5071789;28;20359;-67
2021/01/27 00:44:59;;;;;;;9.10;5.93;;;0.40;99.90;;;;;;5072636;28;20559;-68
2021/01/27 00:47:25;;;;;;;7.63;6.47;;;0.40;99.90;;;;;;5078996;28;20285;-66
2021/01/27 00:49:50;;;;;;;9.23;6.10;;;0.40;99.90;;;;;;5075958;28;20208;-68
2021/01/27 00:52:16;;;;;;;9.50;6.50;;;0.30;99.90;;;;;;5072578;28;20198;-68
2021/01/27 00:54:41;;;;;;;7.93;6.80;;;0.20;99.90;;;;;;5071596;28;20258;-66
2021/01/27 00:57:07;;;;;;;10.03;7.20;;;0.20;99.90;;;;;;5078199;28;20227;-69
2021/01/27 00:59:32;;;;;;;8.97;7.40;;;0.10;99.90;;;;;;5079310;28;20208;-66
2021/01/27 01:01:58;;;;;;;7.90;7.00;;;0.00;99.90;;;;;;5072414;28;20261;-66
2021/01/27 01:04:23;;;;;;;9.73;7.47;;;-0.10;99.90;;;;;;5079047;28;20725;-67
2021/01/27 01:06:49;;;;;;;13.43;7.40;;;-0.10;99.90;;;;;;5074861;28;20185;-67
2021/01/27 01:09:15;;;;;;;8.40;7.30;;;-0.10;99.90;;;;;;5077617;28;20236;-68
2021/01/27 01:11:40;;;;;;;10.33;7.03;;;0.00;99.90;;;;;;5072081;28;20191;-68
2021/01/27 01:14:07;;;;;;;14.43;7.77;;;0.10;99.90;;;;;;5072352;28;20190;-66
2021/01/27 01:16:32;;;;;;;9.20;6.83;;;0.10;99.90;;;;;;5072574;28;20228;-68
2021/01/27 01:18:58;;;;;;;9.03;6.80;;;0.20;99.90;;;;;;5077253;28;20705;-68
2021/01/27 01:21:24;;;;;;;8.40;6.40;;;0.30;99.90;;;;;;5072301;28;20288;-67
2021/01/27 01:23:49;;;;;;;9.10;6.20;;;0.30;99.90;;;;;;5074938;28;20173;-68
2021/01/27 01:26:15;;;;;;;9.60;6.30;;;0.40;99.90;;;;;;5086095;28;20210;-68
2021/01/27 01:28:41;;;;;;;9.87;6.70;;;0.40;99.90;;;;;;5077824;28;20714;-67
2021/01/27 01:31:06;;;;;;;7.57;6.00;;;0.50;99.90;;;;;;5071592;28;20262;-67
2021/01/27 01:33:32;;;;;;;6.93;6.00;;;0.60;99.90;;;;;;5081610;28;20175;-67
2021/01/27 01:35:59;;;;;;;7.13;5.37;;;0.60;99.70;;;;;;5079579;28;20553;-66
2021/01/27 01:38:26;;;;;;;6.00;4.83;;;0.70;99.40;;;;;;5070820;28;20320;-69
2021/01/27 01:41:03;;;;;;;6.17;4.93;;;0.70;99.20;;;;;;5072493;28;20184;-67
2021/01/27 01:43:38;;;;;;;5.83;5.23;;;0.70;99.00;;;;;;5071224;28;20325;-68
2021/01/27 01:46:15;;;;;;;7.17;5.10;;;0.80;99.00;;;;;;5071520;28;20181;-69
2021/01/27 01:49:07;;;;;;;7.00;4.83;;;0.80;98.80;;;;;;5075787;28;20209;-66
2021/01/27 01:51:43;;;;;;;5.83;5.03;;;0.80;98.80;;;;;;5072355;28;20205;-66
2021/01/27 01:54:27;;;;;;;4.83;4.30;;;0.70;98.60;;;;;;5073913;28;20181;-68
2021/01/27 01:57:01;;;;;;;5.17;4.60;;;0.70;98.70;;;;;;5076646;28;20182;-67
2021/01/27 01:59:30;;;;;;;6.33;4.70;;;0.70;98.60;;;;;;5067523;28;20205;-66
2021/01/27 02:02:02;;;;;;;8.13;4.63;;;0.70;98.70;;;;;;5074747;28;20696;-66
2021/01/27 02:04:34;;;;;;;4.80;4.40;;;0.70;98.70;;;;;;5078010;28;20171;-66
2021/01/27 02:07:00;;;;;;;5.90;4.67;;;0.60;98.60;;;;;;5084399;28;20184;-69
2021/01/27 02:09:25;;;;;;;5.83;4.50;;;0.60;98.90;;;;;;5073671;28;20237;-68
2021/01/27 02:12:06;;;;;;;5.63;4.73;;;0.70;98.60;;;;;;5070354;28;20594;-68
2021/01/27 02:14:44;;;;;;;5.83;4.67;;;0.60;98.60;;;;;;5081841;28;20192;-68
2021/01/27 02:17:42;;;;;;;5.97;4.23;;;0.60;98.80;;;;;;5073209;28;20184;-68
2021/01/27 02:20:35;;;;;;;7.57;6.23;;;0.60;98.60;;;;;;5066102;28;20190;-68
2021/01/27 02:23:16;;;;;;;6.40;5.20;;;0.50;98.90;;;;;;5077967;28;20211;-68
2021/01/27 02:26:14;;;;;;;7.83;6.13;;;0.50;99.40;;;;;;5076941;28;20183;-68
2021/01/27 02:28:49;;;;;;;6.23;4.97;;;0.50;99.10;;;;;;5071685;28;20194;-66
2021/01/27 02:31:45;;;;;;;7.07;4.73;;;0.40;98.90;;;;;;5106442;28;20203;-67
2021/01/27 02:34:32;;;;;;;4.80;4.33;;;0.40;98.90;;;;;;5098203;28;20191;-67
2021/01/27 02:37:23;;;;;;;6.30;4.97;;;0.40;98.90;;;;;;5086386;28;20183;-68
2021/01/27 02:39:56;;;;;;;5.33;4.83;;;0.30;99.00;;;;;;5066776;28;20218;-68
2021/01/27 02:42:42;;;;;;;6.17;4.27;;;0.20;99.40;;;;;;5081124;28;20631;-67
2021/01/27 02:45:29;;;;;;;5.30;4.80;;;0.20;99.20;;;;;;5072294;28;20190;-67
2021/01/27 02:48:15;;;;;;;5.40;4.50;;;0.10;98.80;;;;;;5075009;28;20186;-66
2021/01/27 02:50:47;;;;;;;4.90;4.40;;;0.00;98.70;;;;;;5079366;28;20186;-67
2021/01/27 02:53:16;;;;;;;12.00;4.97;;;-0.10;98.80;;;;;;5073407;28;20219;-69
2021/01/27 02:56:00;;;;;;;4.53;4.13;;;-0.20;99.20;;;;;;5077610;28;20252;-68
2021/01/27 02:58:41;;;;;;;6.67;4.43;;;-0.30;99.20;;;;;;5079749;28;20209;-67
2021/01/27 03:01:38;;;;;;;5.30;4.53;;;-0.30;99.50;;;;;;5065167;28;20191;-65
2021/01/27 03:04:14;;;;;;;5.10;4.33;;;-0.40;99.60;;;;;;5073005;28;20683;-68
2021/01/27 03:06:42;;;;;;;5.20;4.57;;;-0.40;99.70;;;;;;5070677;28;20604;-67
2021/01/27 03:09:13;;;;;;;6.13;4.83;;;-0.40;99.70;;;;;;5071957;28;20252;-68
2021/01/27 03:11:39;;;;;;;5.50;4.40;;;-0.40;99.90;;;;;;5069839;28;20208;-68
2021/01/27 03:14:05;;;;;;;5.83;4.90;;;-0.40;99.70;;;;;;5069454;28;20605;-68
2021/01/27 03:16:46;;;;;;;5.33;4.33;;;-0.40;99.60;;;;;;5068801;28;20180;-67
2021/01/27 03:19:27;;;;;;;8.60;5.80;;;-0.40;99.20;;;;;;5065653;28;20201;-67
2021/01/27 03:21:58;;;;;;;8.30;5.17;;;-0.40;99.70;;;;;;5069562;28;20211;-68
2021/01/27 03:24:24;;;;;;;5.47;4.67;;;-0.30;99.80;;;;;;5071289;28;20192;-67
2021/01/27 03:27:05;;;;;;;6.37;4.63;;;-0.30;99.90;;;;;;5081516;28;20250;-68
2021/01/27 03:29:52;;;;;;;9.37;4.43;;;-0.30;99.90;;;;;;5069693;28;20206;-68
2021/01/27 03:32:37;;;;;;;8.43;4.63;;;-0.20;99.90;;;;;;5069332;28;20200;-66
2021/01/27 03:35:11;;;;;;;6.87;4.47;;;-0.20;99.90;;;;;;5073378;28;20177;-66
2021/01/27 03:37:49;;;;;;;7.10;5.23;;;-0.20;99.90;;;;;;5075253;28;20193;-69
2021/01/27 03:40:18;;;;;;;7.77;5.03;;;-0.10;99.90;;;;;;5075639;28;20202;-68
2021/01/27 03:43:09;;;;;;;5.17;4.67;;;-0.10;99.90;;;;;;5069170;28;20199;-67
2021/01/27 03:45:40;;;;;;;5.20;4.70;;;0.00;99.90;;;;;;5066745;28;20253;-67
2021/01/27 03:48:45;;;;;;;5.60;4.93;;;0.00;99.90;;;;;;5079908;28;20652;-66
2021/01/27 03:51:13;;;;;;;6.47;4.30;;;0.00;99.60;;;;;;5059876;28;20209;-66
2021/01/27 03:53:39;;;;;;;5.87;4.70;;;0.00;99.60;;;;;;5083841;28;20186;-67
2021/01/27 03:56:16;;;;;;;5.07;4.57;;;0.00;99.50;;;;;;5089221;28;20208;-68
2021/01/27 03:58:45;;;;;;;7.90;4.57;;;0.10;99.50;;;;;;5080925;28;20202;-66
2021/01/27 04:01:21;;;;;;;5.67;4.40;;;0.10;99.40;;;;;;5078914;28;20673;-66
2021/01/27 04:03:49;;;;;;;5.70;5.10;;;0.10;99.40;;;;;;5075740;28;20225;-65
2021/01/27 04:06:14;;;;;;;6.13;4.80;;;0.10;99.40;;;;;;5078911;28;20197;-66
2021/01/27 04:08:40;;;;;;;6.13;4.50;;;0.10;99.30;;;;;;5084564;28;20670;-67
2021/01/27 04:11:06;;;;;;;7.80;4.87;;;0.10;99.20;;;;;;5080368;28;20212;-66
2021/01/27 04:13:33;;;;;;;5.50;4.80;;;0.10;99.20;;;;;;5064348;28;20209;-66
2021/01/27 04:15:59;;;;;;;5.47;4.77;;;0.10;99.10;;;;;;5070942;28;20184;-66
2021/01/27 04:18:25;;;;;;;5.30;4.80;;;0.10;99.20;;;;;;5076235;28;20228;-65
2021/01/27 04:20:51;;;;;;;4.93;4.40;;;0.10;99.00;;;;;;5082528;28;20200;-67
2021/01/27 04:23:17;;;;;;;5.73;4.47;;;0.10;99.10;;;;;;5076738;28;20290;-67
2021/01/27 04:25:43;;;;;;;7.27;4.90;;;0.10;99.00;;;;;;5077940;28;20648;-66
2021/01/27 04:28:08;;;;;;;5.70;5.13;;;0.10;99.10;;;;;;5077645;28;20224;-67
2021/01/27 04:30:35;;;;;;;7.23;4.97;;;0.00;99.10;;;;;;5078397;28;20294;-67
2021/01/27 04:33:03;;;;;;;5.00;4.50;;;0.00;99.10;;;;;;5082602;28;20186;-68
2021/01/27 04:35:29;;;;;;;6.80;5.13;;;0.00;99.20;;;;;;5086542;28;20190;-66
2021/01/27 04:37:55;;;;;;;8.07;5.13;;;0.00;99.10;;;;;;5084711;28;20178;-68
2021/01/27 04:40:54;;;;;;;6.33;4.60;;;0.00;99.00;;;;;;5082824;28;20204;-66
2021/01/27 04:43:25;;;;;;;6.83;5.30;;;0.00;99.30;;;;;;5075485;28;20230;-66
2021/01/27 04:46:01;;;;;;;5.90;5.30;;;0.00;99.40;;;;;;5074337;28;20256;-66
2021/01/27 04:48:49;;;;;;;6.03;5.03;;;-0.10;99.50;;;;;;5068905;28;20212;-66
2021/01/27 04:51:21;;;;;;;6.60;5.20;;;-0.10;99.70;;;;;;5073382;28;20531;-66
2021/01/27 04:54:09;;;;;;;7.23;5.27;;;-0.10;99.90;;;;;;5078164;28;20194;-65
2021/01/27 04:57:15;;;;;;;6.90;4.97;;;-0.20;99.90;;;;;;5077611;28;20183;-67
2021/01/27 05:00:09;;;;;;;11.33;5.40;;;-0.20;99.90;;;;;;5073011;28;20229;-66
2021/01/27 05:02:37;;;;;;;7.07;5.70;;;-0.20;99.90;;;;;;5071481;28;20249;-66
2021/01/27 05:05:10;;;;;;;7.57;6.07;;;-0.20;99.90;;;;;;5080909;28;20784;-66
2021/01/27 05:07:59;;;;;;;6.10;5.50;;;-0.20;99.90;;;;;;5084745;28;20186;-67
2021/01/27 05:10:41;;;;;;;8.30;6.13;;;-0.20;99.90;;;;;;5061090;28;20217;-65
2021/01/27 05:13:29;;;;;;;7.50;6.10;;;-0.20;99.90;;;;;;5068464;28;20183;-65
2021/01/27 05:15:57;;;;;;;7.23;5.30;;;-0.30;99.90;;;;;;5072560;28;20182;-66
2021/01/27 05:18:22;;;;;;;8.57;6.00;;;-0.30;99.90;;;;;;5086597;28;20183;-66
2021/01/27 05:20:49;;;;;;;6.50;5.90;;;-0.30;99.90;;;;;;5080534;28;20729;-66
2021/01/27 05:23:15;;;;;;;7.93;6.60;;;-0.20;99.90;;;;;;5082920;28;20838;-66
2021/01/27 05:26:00;;;;;;;7.00;6.10;;;-0.20;99.90;;;;;;5071304;28;20228;-66
2021/01/27 05:28:31;;;;;;;7.20;5.77;;;-0.20;99.90;;;;;;5069971;28;20210;-66
2021/01/27 05:30:57;;;;;;;8.40;5.50;;;-0.20;99.90;;;;;;5070947;28;20676;-68
2021/01/27 05:33:49;;;;;;;6.13;5.27;;;-0.20;99.90;;;;;;5074390;28;20273;-66
2021/01/27 05:36:20;;;;;;;6.50;5.43;;;-0.20;99.90;;;;;;5066752;28;20278;-68
2021/01/27 05:38:46;;;;;;;8.37;5.90;;;-0.20;99.90;;;;;;5067051;28;20287;-66
2021/01/27 05:41:21;;;;;;;8.27;6.23;;;-0.20;99.90;;;;;;5073497;28;20215;-67
2021/01/27 05:43:52;;;;;;;7.33;5.53;;;-0.20;99.90;;;;;;5072358;28;20222;-67
2021/01/27 05:46:39;;;;;;;7.63;5.30;;;-0.20;99.90;;;;;;5078543;28;20565;-67
2021/01/27 05:49:24;;;;;;;7.83;5.70;;;-0.20;99.90;;;;;;5074593;28;20246;-65
2021/01/27 05:51:50;;;;;;;9.20;6.23;;;-0.30;99.90;;;;;;5071332;28;20182;-68
2021/01/27 05:54:25;;;;;;;9.13;6.43;;;-0.30;99.90;;;;;;5069597;28;20247;-67
2021/01/27 05:56:54;;;;;;;7.73;5.80;;;-0.30;99.90;;;;;;5070392;28;20178;-67
2021/01/27 05:59:28;;;;;;;11.23;5.80;;;-0.30;99.90;;;;;;5062006;28;20636;-67
2021/01/27 06:02:06;;;;;;;7.57;6.00;;;-0.20;99.90;;;;;;5069605;28;20190;-66
2021/01/27 06:04:34;;;;;;;6.47;5.83;;;-0.30;99.90;;;;;;5062052;28;20791;-67
2021/01/27 06:07:01;;;;;;;7.83;5.37;;;-0.20;99.90;;;;;;5061499;28;20176;-67
2021/01/27 06:09:42;;;;;;;7.00;5.90;;;-0.20;99.90;;;;;;5079301;28;20653;-66
2021/01/27 06:12:32;;;;;;;8.93;6.17;;;-0.20;99.90;;;;;;5068494;28;20270;-68
2021/01/27 06:15:04;;;;;;;7.63;5.57;;;-0.20;99.90;;;;;;5076018;28;20195;-67
2021/01/27 06:17:39;;;;;;;5.97;5.20;;;-0.20;99.90;;;;;;5066792;28;20187;-67
2021/01/27 06:20:17;;;;;;;6.63;5.57;;;-0.20;99.90;;;;;;5065126;28;20241;-66
2021/01/27 06:22:57;;;;;;;9.03;6.30;;;-0.20;99.90;;;;;;5069333;28;20754;-66
2021/01/27 06:25:44;;;;;;;8.73;6.60;;;-0.20;99.90;;;;;;5083272;28;20180;-67
2021/01/27 06:28:27;;;;;;;9.03;6.73;;;-0.20;99.90;;;;;;5077733;28;20186;-66
2021/01/27 06:31:26;;;;;;;9.10;6.23;;;-0.20;99.90;;;;;;5072672;28;20178;-67
2021/01/27 06:34:29;;;;;;;7.90;6.47;;;-0.20;99.90;;;;;;5052623;28;20287;-66
2021/01/27 06:37:07;;;;;;;9.33;5.90;;;-0.20;99.90;;;;;;5082682;28;20260;-64
2021/01/27 06:40:09;;;;;;;6.87;5.77;;;-0.20;99.90;;;;;;5070119;28;20281;-65
2021/01/27 06:42:39;;;;;;;5.20;4.70;;;-0.10;99.90;;;;;;5073807;28;20211;-66
2021/01/27 06:45:24;;;;;;;5.73;4.50;;;0.00;99.60;;;;;;5075327;28;20209;-64
2021/01/27 06:48:25;;;;;;;8.97;4.10;;;0.10;99.10;;;;;;5062991;28;20188;-65
2021/01/27 06:51:07;;;;;;;5.40;4.30;;;0.20;98.80;;;;;;5071482;28;20182;-64
2021/01/27 06:53:48;;;;;;;4.23;3.67;;;0.20;98.40;;;;;;5067214;28;20187;-65
2021/01/27 06:56:51;;;;;;;4.03;3.60;;;0.30;97.60;;;;;;5066042;28;20710;-65
2021/01/27 06:59:49;;;;;;;5.43;2.87;;;0.50;96.50;;;;;;5069934;28;20213;-65
2021/01/27 07:02:30;;;;;;;3.17;2.83;;;0.70;95.10;;;;;;5062875;28;20203;-63
2021/01/27 07:05:22;;;;;;;4.03;2.90;;;0.90;94.10;;;;;;5082903;28;20188;-66
2021/01/27 07:08:04;;;;;;;7.77;3.20;;;0.90;93.70;;;;;;5079974;28;20831;-64
2021/01/27 07:11:00;;;;;;;3.53;2.80;;;0.90;94.00;;;;;;5068222;28;20209;-67
2021/01/27 07:13:34;;;;;;;4.50;2.80;;;0.90;94.00;;;;;;5069673;28;20193;-64
2021/01/27 07:16:09;;;;;;;8.13;3.40;;;0.80;94.30;;;;;;5096293;28;20542;-66
2021/01/27 07:18:46;;;;;;;4.43;3.77;;;0.80;94.60;;;;;;5082232;28;20206;-63
2021/01/27 07:21:23;;;;;;;3.63;3.33;;;0.80;94.60;;;;;;5074014;28;20269;-66
2021/01/27 07:24:22;;;;;;;5.37;3.63;;;0.80;94.60;;;;;;5084828;28;20209;-64
2021/01/27 07:27:12;;;;;;;4.87;3.30;;;0.80;94.90;;;;;;5070941;28;20179;-63
2021/01/27 07:30:11;;;;;;;5.00;3.20;;;0.80;95.00;;;;;;5073738;28;20355;-64
2021/01/27 07:32:59;;;;;;;6.67;4.17;;;0.80;95.20;;;;;;5064828;28;20280;-66
2021/01/27 07:35:36;;;;;;;5.50;4.13;;;0.80;95.50;;;;;;5069357;28;20297;-65
2021/01/27 07:38:11;;;;;;;4.80;4.10;;;0.80;95.50;;;;;;5076838;28;20181;-66
2021/01/27 07:40:59;;;;;;;5.90;4.10;;;0.80;95.50;;;;;;5073102;28;20179;-63
2021/01/27 07:43:41;;;;;;;4.80;4.30;;;0.80;95.70;;;;;;5075745;28;20221;-67
2021/01/27 07:46:08;;;;;;;4.90;4.37;;;0.90;96.10;;;;;;5068769;28;20182;-66
2021/01/27 07:48:59;;;;;;;8.23;5.17;;;0.90;96.60;;;;;;5075534;28;20598;-64
2021/01/27 07:51:29;;;;;;;4.40;4.00;;;0.80;97.20;;;;;;5069846;28;20684;-65
2021/01/27 07:54:22;;;;;;;8.00;5.13;;;0.70;98.00;;;;;;5064069;28;20191;-64
2021/01/27 07:57:03;;;;;;;5.57;5.03;;;0.70;99.00;;;;;;5059692;28;20620;-66
2021/01/27 07:59:38;;;;;;;8.00;5.33;;;0.60;99.60;;;;;;5072756;28;20259;-64
2021/01/27 08:02:13;;;;;;;6.70;5.70;;;0.60;99.90;;;;;;5072370;28;20202;-66
2021/01/27 08:04:46;;;;;;;6.20;5.60;;;0.60;99.90;;;;;;5081735;28;20212;-65
2021/01/27 08:07:30;;;;;;;6.33;5.20;;;0.60;99.90;;;;;;5071762;28;20281;-65
2021/01/27 08:10:10;;;;;;;6.10;5.50;;;0.50;99.90;;;;;;5065542;28;20797;-66
2021/01/27 08:12:50;;;;;;;7.27;6.37;;;0.60;99.90;;;;;;5072510;28;20203;-64
2021/01/27 08:15:24;;;;;;;6.50;5.23;;;0.60;99.90;;;;;;5067363;28;20183;-67
2021/01/27 08:17:59;;;;;;;6.07;5.17;;;0.60;99.90;;;;;;5068974;28;20236;-66
2021/01/27 08:20:43;;;;;;;7.67;6.43;;;0.60;99.90;;;;;;5070210;28;20242;-65
2021/01/27 08:23:10;;;;;;;7.03;6.27;;;0.70;99.90;;;;;;5067445;28;20212;-66
2021/01/27 08:25:48;;;;;;;8.50;6.57;;;0.80;99.90;;;;;;5070036;28;20183;-68
2021/01/27 08:28:36;;;;;;;7.77;5.70;;;0.80;99.90;;;;;;5062745;28;20198;-66
2021/01/27 08:31:12;;;;;;;5.33;4.37;;;0.90;99.90;;;;;;5070498;28;20184;-65
2021/01/27 08:33:46;;;;;;;4.90;4.13;;;0.80;99.90;;;;;;5066787;28;20226;-67
2021/01/27 08:36:31;;;;;;;7.17;4.83;;;0.80;99.90;;;;;;5070467;28;20193;-64
2021/01/27 08:38:56;;;;;;;7.97;5.17;;;0.80;99.90;;;;;;5069912;28;20198;-65
2021/01/27 08:41:40;;;;;;;5.97;5.00;;;0.70;99.90;;;;;;5069579;28;20187;-65
2021/01/27 08:44:25;;;;;;;5.70;5.13;;;0.60;99.90;;;;;;5072253;28;20245;-64
2021/01/27 08:47:33;;;;;;;5.20;4.70;;;0.60;99.90;;;;;;5074284;28;20175;-65
2021/01/27 08:50:01;;;;;;;7.23;4.93;;;0.60;99.90;;;;;;5069091;28;20210;-63
2021/01/27 08:52:32;;;;;;;7.40;5.27;;;0.60;99.90;;;;;;5074978;28;20191;-65
2021/01/27 08:54:57;;;;;;;4.97;4.53;;;0.60;99.90;;;;;;5073662;28;20177;-67
2021/01/27 08:57:35;;;;;;;8.07;5.23;;;0.60;99.90;;;;;;5070826;28;20993;-64
2021/01/27 09:00:33;;;;;;;5.33;4.80;;;0.60;99.90;;;;;;5080606;28;20198;-63
2021/01/27 09:03:02;;;;;;;5.37;4.57;;;0.60;99.90;;;;;;5051746;28;20603;-65
2021/01/27 09:05:28;;;;;;;6.07;4.80;;;0.60;99.90;;;;;;5072257;28;20197;-65
2021/01/27 09:08:10;;;;;;;6.13;4.63;;;0.60;99.90;;;;;;5081895;28;20663;-63
2021/01/27 09:10:57;;;;;;;6.80;5.10;;;0.60;99.90;;;;;;5078789;28;20223;-68
2021/01/27 09:13:35;;;;;;;6.83;5.23;;;0.50;99.90;;;;;;4988453;28;20197;-65
2021/01/27 09:16:15;;;;;;;7.43;5.03;;;0.50;99.90;;;;;;4987953;28;20230;-65
2021/01/27 09:18:43;;;;;;;7.93;5.30;;;0.40;99.90;;;;;;4984250;28;20695;-66
2021/01/27 09:21:14;;;;;;;7.30;5.43;;;0.50;99.90;;;;;;4983809;28;20606;-65
2021/01/27 09:23:41;;;;;;;10.10;5.00;;;0.50;99.90;;;;;;4990957;28;20210;-67
2021/01/27 09:26:19;;;;;;;11.53;4.90;;;0.50;99.90;;;;;;4984960;28;20372;-66
2021/01/27 09:28:46;;;;;;;5.50;4.97;;;0.60;99.90;;;;;;4994422;28;20210;-66
2021/01/27 09:31:15;;;;;;;5.33;4.83;;;0.60;99.90;;;;;;4994672;28;20183;-66
2021/01/27 09:33:41;;;;;;;5.00;4.50;;;0.60;99.90;;;;;;4989583;28;20277;-65
2021/01/27 09:36:18;;;;;;;6.63;5.23;;;0.60;99.90;;;;;;4994604;28;20212;-66
2021/01/27 09:38:43;;;;;;;5.07;4.63;;;0.40;99.90;;;;;;4987914;28;20247;-64
2021/01/27 09:41:13;;;;;;;10.87;5.10;;;0.40;99.90;;;;;;4996245;28;20205;-65
2021/01/27 09:43:42;;;;;;;4.83;4.33;;;0.40;99.90;;;;;;4999615;28;20291;-66
2021/01/27 09:46:19;;;;;;;8.93;4.97;;;0.40;99.90;;;;;;5005378;28;20188;-64
2021/01/27 09:48:47;;;;;;;6.87;5.30;;;0.40;99.90;;;;;;5006938;28;20199;-64
2021/01/27 09:51:15;;;;;;;5.50;5.00;;;0.40;99.90;;;;;;5074268;28;20198;-64
2021/01/27 09:53:41;;;;;;;7.83;4.93;;;0.40;99.90;;;;;;5098216;28;20162;-66
2021/01/27 09:56:09;;;;;;;8.60;6.23;;;0.40;99.90;;;;;;5092955;28;20212;-66
2021/01/27 09:58:39;;;;;;;10.97;6.30;;;0.50;99.90;;;;;;5088007;28;20235;-65
2021/01/27 10:01:15;;;;;;;11.57;5.60;;;0.50;99.90;;;;;;5090883;28;20248;-63
2021/01/27 10:03:48;;;;;;;8.60;5.93;;;0.60;99.90;;;;;;5079595;28;20209;-64
2021/01/27 10:06:39;;;;;;;7.70;5.93;;;0.60;99.90;;;;;;5081092;28;20206;-66
2021/01/27 10:09:31;;;;;;;7.33;6.23;;;0.60;99.90;;;;;;5081354;28;20217;-65
2021/01/27 10:12:06;;;;;;;7.60;6.23;;;0.70;99.90;;;;;;5086083;28;20175;-63
2021/01/27 10:14:36;;;;;;;6.37;5.43;;;0.80;99.90;;;;;;5085164;28;20205;-63
2021/01/27 10:17:04;;;;;;;6.23;5.63;;;0.70;99.90;;;;;;5094399;28;20178;-65
2021/01/27 10:19:34;;;;;;;8.57;7.27;;;0.70;99.90;;;;;;5086325;28;20260;-68
2021/01/27 10:22:03;;;;;;;7.50;5.90;;;0.70;99.90;;;;;;5092669;28;20193;-63
2021/01/27 10:24:42;;;;;;;7.60;6.70;;;0.80;99.90;;;;;;5086228;28;20186;-64
2021/01/27 10:27:08;;;;;;;10.20;7.40;;;0.80;99.90;;;;;;5086522;28;20174;-63
2021/01/27 10:29:38;;;;;;;7.97;6.73;;;0.80;99.90;;;;;;5087529;28;20200;-63
2021/01/27 10:32:33;;;;;;;9.37;8.47;;;0.90;99.90;;;;;;5074748;28;20604;-65
2021/01/27 10:35:01;;;;;;;8.67;7.60;;;1.10;99.90;;;;;;5084184;28;20259;-63
2021/01/27 10:37:44;;;;;;;8.87;8.00;;;1.30;99.90;;;;;;5071834;28;20186;-65
2021/01/27 10:40:35;;;;;;;9.17;7.33;;;1.40;99.90;;;;;;5078793;28;20191;-64
2021/01/27 10:43:22;;;;;;;8.07;6.73;;;1.30;99.90;;;;;;5087237;28;20217;-64
2021/01/27 10:45:48;;;;;;;10.30;9.33;;;1.30;99.90;;;;;;5074484;28;20228;-65
2021/01/27 10:48:32;;;;;;;9.87;8.27;;;1.50;99.90;;;;;;5081410;28;20183;-65
2021/01/27 10:51:07;;;;;;;9.30;8.50;;;1.40;99.90;;;;;;5080451;28;20190;-62
2021/01/27 10:53:38;;;;;;;9.30;7.90;;;1.50;99.90;;;;;;5079640;28;20250;-64
2021/01/27 10:56:04;;;;;;;9.37;8.33;;;1.50;99.90;;;;;;5077996;28;20190;-65
2021/01/27 10:58:29;;;;;;;11.67;9.47;;;1.40;99.90;;;;;;5088096;28;20209;-64
2021/01/27 11:00:55;;;;;;;10.80;7.33;;;1.50;99.90;;;;;;5079173;28;20683;-64
2021/01/27 11:03:21;;;;;;;10.10;6.97;;;1.30;99.90;;;;;;5085639;28;20233;-64
2021/01/27 11:05:50;;;;;;;8.83;5.77;;;1.40;99.90;;;;;;5078453;28;20189;-64
2021/01/27 11:08:24;;;;;;;7.07;6.20;;;1.30;99.90;;;;;;5070144;28;20558;-66
2021/01/27 11:10:51;;;;;;;6.13;5.53;;;1.30;99.90;;;;;;5072920;28;20186;-66
2021/01/27 11:13:17;;;;;;;7.37;5.80;;;1.20;99.90;;;;;;5086786;28;20192;-64
2021/01/27 11:15:42;;;;;;;6.20;5.60;;;1.20;99.90;;;;;;5089896;28;20182;-65
2021/01/27 11:18:08;;;;;;;6.50;5.47;;;1.30;99.90;;;;;;5091798;28;20185;-64
2021/01/27 11:20:34;;;;;;;22.27;11.60;;;1.30;99.90;;;;;;5082410;28;20195;-65
2021/01/27 11:22:59;;;;;;;9.87;7.20;;;1.40;99.90;;;;;;5081288;28;20215;-62
2021/01/27 11:25:28;;;;;;;7.70;6.47;;;1.50;99.90;;;;;;5081783;28;20225;-66
2021/01/27 11:27:55;;;;;;;5.30;4.90;;;1.50;99.90;;;;;;5081223;28;20185;-67
2021/01/27 11:30:27;;;;;;;8.17;5.53;;;1.60;99.90;;;;;;5077081;28;20701;-65
2021/01/27 11:32:52;;;;;;;5.60;4.47;;;1.70;99.90;;;;;;5070534;28;20281;-65
2021/01/27 11:35:19;;;;;;;6.30;5.20;;;1.70;99.90;;;;;;5074607;28;20202;-65
2021/01/27 11:37:46;;;;;;;5.30;4.80;;;1.80;99.90;;;;;;5074554;28;20231;-65
2021/01/27 11:40:13;;;;;;;6.13;4.57;;;1.90;99.90;;;;;;5075809;28;20208;-66
2021/01/27 11:42:39;;;;;;;4.87;4.43;;;1.90;99.90;;;;;;5063767;28;20709;-64
2021/01/27 11:45:06;;;;;;;5.67;4.80;;;1.80;99.90;;;;;;5086899;28;20183;-65
2021/01/27 11:47:32;;;;;;;5.83;4.40;;;1.80;99.90;;;;;;5068989;28;20193;-66
2021/01/27 11:49:58;;;;;;;6.03;4.03;;;1.80;99.90;;;;;;5068405;28;20215;-64
2021/01/27 11:52:23;;;;;;;4.53;4.10;;;1.80;99.90;;;;;;5071912;28;20190;-66
2021/01/27 11:54:50;;;;;;;3.77;3.47;;;1.90;99.90;;;;;;5069915;28;20603;-65
2021/01/27 11:57:18;;;;;;;3.83;3.43;;;1.90;99.90;;;;;;5069424;28;20192;-64
2021/01/27 11:59:44;;;;;;;4.37;3.47;;;1.80;99.90;;;;;;5072139;28;20207;-64
2021/01/27 12:02:10;;;;;;;3.77;3.33;;;1.70;99.90;;;;;;5070282;28;20643;-64
2021/01/27 12:04:35;;;;;;;5.00;3.70;;;1.60;99.90;;;;;;5070549;28;20733;-64
2021/01/27 12:07:02;;;;;;;5.93;3.50;;;1.50;99.90;;;;;;5069245;28;20239;-65
2021/01/27 12:09:28;;;;;;;5.47;4.20;;;1.40;99.90;;;;;;5066070;28;20289;-65
2021/01/27 12:11:55;;;;;;;5.13;3.90;;;1.30;99.90;;;;;;5073161;28;20236;-64
2021/01/27 12:14:21;;;;;;;4.43;4.03;;;1.30;99.90;;;;;;5070465;28;20191;-68
2021/01/27 12:16:47;;;;;;;5.03;4.40;;;1.20;99.90;;;;;;5071885;28;20192;-68
2021/01/27 12:19:13;;;;;;;4.33;3.90;;;1.20;99.90;;;;;;5083070;28;20234;-68
2021/01/27 12:21:38;;;;;;;5.50;4.50;;;1.10;99.90;;;;;;5065711;28;20195;-68
2021/01/27 12:24:05;;;;;;;5.17;4.53;;;1.10;99.90;;;;;;5069848;28;20693;-66
2021/01/27 12:26:32;;;;;;;5.43;4.93;;;1.10;99.90;;;;;;5066719;28;20208;-67
2021/01/27 12:28:58;;;;;;;6.03;5.37;;;1.10;99.90;;;;;;5063783;28;20244;-68
2021/01/27 12:31:23;;;;;;;5.63;5.13;;;1.20;99.90;;;;;;5075096;28;20187;-68
2021/01/27 12:33:49;;;;;;;6.03;4.90;;;1.30;99.90;;;;;;5066501;28;20188;-67
2021/01/27 12:36:15;;;;;;;5.70;4.87;;;1.50;99.90;;;;;;5068095;28;20185;-68
2021/01/27 12:38:41;;;;;;;7.43;5.10;;;1.60;99.90;;;;;;5065448;28;20709;-68
2021/01/27 12:41:06;;;;;;;13.07;6.03;;;1.70;99.90;;;;;;5064965;28;21131;-65
2021/01/27 12:43:32;;;;;;;5.13;4.67;;;1.80;99.90;;;;;;5064316;28;20263;-67
2021/01/27 12:45:57;;;;;;;7.37;5.37;;;1.70;99.90;;;;;;5066442;28;20182;-67
2021/01/27 12:48:23;;;;;;;5.03;4.60;;;1.80;99.90;;;;;;5064766;28;20374;-67
2021/01/27 12:50:49;;;;;;;7.80;5.30;;;1.80;99.90;;;;;;5066292;28;20182;-64
2021/01/27 12:53:14;;;;;;;7.10;5.00;;;1.80;99.90;;;;;;5069527;28;20192;-67
2021/01/27 12:55:40;;;;;;;6.80;5.23;;;2.00;99.90;;;;;;5070089;28;20704;-68
2021/01/27 12:58:06;;;;;;;8.90;6.60;;;2.00;99.90;;;;;;5068337;28;20193;-66
2021/01/27 13:00:31;;;;;;;7.93;6.33;;;2.00;99.90;;;;;;5072427;28;20260;-69
2021/01/27 13:02:57;;;;;;;7.30;5.83;;;2.10;99.90;;;;;;5070191;28;20248;-68
2021/01/27 13:05:25;;;;;;;8.53;6.07;;;2.00;99.90;;;;;;5062647;28;20255;-66
2021/01/27 13:07:51;;;;;;;6.67;5.90;;;1.90;99.90;;;;;;5068176;28;20180;-67
2021/01/27 13:10:17;;;;;;;8.57;6.63;;;2.00;99.90;;;;;;5062657;28;20270;-66
2021/01/27 13:12:44;;;;;;;7.60;6.00;;;2.00;99.90;;;;;;5068823;28;20205;-66
2021/01/27 13:15:17;;;;;;;8.03;6.03;;;2.00;99.90;;;;;;5063120;28;20184;-64
2021/01/27 13:17:43;;;;;;;7.23;5.60;;;2.10;99.90;;;;;;5060620;28;20245;-68
2021/01/27 13:20:11;;;;;;;6.30;4.67;;;2.00;99.90;;;;;;5070347;28;20472;-65
2021/01/27 13:22:38;;;;;;;6.10;5.50;;;2.00;99.90;;;;;;5069072;28;20205;-67
2021/01/27 13:25:04;;;;;;;7.17;5.30;;;1.80;99.90;;;;;;5060891;28;20513;-67
2021/01/27 13:27:30;;;;;;;5.50;4.90;;;1.70;99.90;;;;;;5060496;28;20233;-67